createdAt,value
2022-08-02T00:00:35.537Z,99501.16
2022-08-02T00:03:03.786Z,99508.56
2022-08-02T00:05:33.705Z,99515.50
2022-08-02T00:08:01.851Z,99518.66
2022-08-02T00:10:30.497Z,99524.50
2022-08-02T00:12:59.092Z,99521.34
2022-08-02T00:15:27.328Z,99529.25
2022-08-02T00:17:55.521Z,99524.09
2022-08-02T00:20:23.706Z,99533.63
2022-08-02T00:22:53.293Z,99522.25
2022-08-02T00:25:21.545Z,99524.03
2022-08-02T00:27:49.718Z,99524.75
2022-08-02T00:30:18.018Z,99523.47
2022-08-02T00:32:46.122Z,99533.63
2022-08-02T00:35:14.298Z,99534.72
2022-08-02T00:37:42.785Z,99536.66
2022-08-02T00:40:13.106Z,99543.47
2022-08-02T00:42:41.526Z,99550.88
2022-08-02T00:45:10.402Z,99538.63
2022-08-02T00:47:38.604Z,99547.78
2022-08-02T00:50:07.560Z,99550.47
2022-08-02T00:52:35.687Z,99550.34
2022-08-02T00:55:03.822Z,99553.22
2022-08-02T00:57:33.439Z,99559.09
2022-08-02T01:00:01.548Z,99560.16
2022-08-02T01:02:29.775Z,99564.03
2022-08-02T01:04:58.020Z,99564.09
2022-08-02T01:07:26.669Z,99579.97
2022-08-02T01:09:55.084Z,99589.00
2022-08-02T01:12:23.430Z,99582.66
2022-08-02T01:14:54.004Z,99583.94
2022-08-02T01:17:38.105Z,99587.03
2022-08-02T01:20:12.524Z,99588.78
2022-08-02T01:23:02.090Z,99589.22
2022-08-02T01:25:46.489Z,99586.88
2022-08-02T01:28:28.072Z,99588.31
2022-08-02T01:31:00.298Z,99589.16
2022-08-02T01:33:37.993Z,99597.00
2022-08-02T01:36:07.211Z,99597.84
2022-08-02T01:38:39.611Z,99599.72
2022-08-02T01:41:09.583Z,99615.66
2022-08-02T01:43:39.632Z,99607.38
2022-08-02T01:46:08.596Z,99603.75
2022-08-02T01:48:36.739Z,99604.72
2022-08-02T01:51:05.420Z,99597.88
2022-08-02T01:53:34.376Z,99589.72
2022-08-02T01:56:06.870Z,99590.03
2022-08-02T01:58:36.960Z,99582.47
2022-08-02T02:01:18.579Z,99586.06
2022-08-02T02:03:48.676Z,99581.50
2022-08-02T02:06:18.236Z,99586.50
2022-08-02T02:08:46.656Z,99580.75
2022-08-02T02:12:06.427Z,99576.22
2022-08-02T02:14:05.209Z,99578.31
2022-08-02T02:16:35.125Z,99573.94
2022-08-02T02:19:07.284Z,99579.72
2022-08-02T02:21:35.372Z,99577.22
2022-08-02T02:24:07.195Z,99572.47
2022-08-02T02:26:41.392Z,99583.63
2022-08-02T02:29:22.064Z,99579.22
2022-08-02T02:31:54.620Z,99586.94
2022-08-02T02:34:26.889Z,99572.56
2022-08-02T02:36:55.369Z,99586.28
2022-08-02T02:39:24.509Z,99578.47
2022-08-02T02:41:55.186Z,99576.19
2022-08-02T02:44:24.172Z,99590.03
2022-08-02T02:46:55.341Z,99579.84
2022-08-02T02:49:24.520Z,99592.66
2022-08-02T02:51:53.472Z,99591.16
2022-08-02T03:06:58.008Z,99581.91
2022-08-02T03:09:26.236Z,99584.72
2022-08-02T03:11:55.053Z,99579.25
2022-08-02T03:14:25.086Z,99581.63
2022-08-02T03:16:55.822Z,99580.75
2022-08-02T03:19:24.309Z,99579.47
2022-08-02T03:22:02.924Z,99586.16
2022-08-02T03:24:31.151Z,99578.19
2022-08-02T03:26:59.779Z,99582.41
2022-08-02T03:29:31.471Z,99581.91
2022-08-02T03:32:02.740Z,99583.31
2022-08-02T03:34:31.074Z,99591.81
2022-08-02T03:37:01.587Z,99598.34
2022-08-02T03:39:33.420Z,99595.63
2022-08-02T03:42:02.611Z,99588.31
2022-08-02T03:44:31.485Z,99594.84
2022-08-02T03:47:00.012Z,99601.66
2022-08-02T03:49:29.275Z,99609.41
2022-08-02T03:51:57.852Z,99617.03
2022-08-02T03:54:33.087Z,99619.47
2022-08-02T03:57:15.612Z,99615.13
2022-08-02T03:59:45.301Z,99623.06
2022-08-02T04:02:14.711Z,99627.84
2022-08-02T04:04:43.341Z,99635.75
2022-08-02T04:07:11.477Z,99644.22
2022-08-02T04:09:39.733Z,99642.91
2022-08-02T04:12:10.994Z,99657.50
2022-08-02T04:14:40.809Z,99653.88
2022-08-02T04:17:10.164Z,99668.50
2022-08-02T04:19:40.287Z,99659.59
2022-08-02T04:22:10.770Z,99666.25
2022-08-02T04:24:41.485Z,99662.88
2022-08-02T04:27:49.263Z,99664.53
2022-08-02T04:30:03.292Z,99665.66
2022-08-02T04:32:32.567Z,99660.72
2022-08-02T04:38:05.504Z,99663.38
2022-08-02T04:40:38.822Z,99675.13
2022-08-02T04:43:07.149Z,99672.63
2022-08-02T04:45:37.229Z,99662.34
2022-08-02T04:48:06.566Z,99660.16
2022-08-02T04:50:35.025Z,99668.59
2022-08-02T04:53:03.467Z,99663.59
2022-08-02T04:55:31.650Z,99666.31
2022-08-02T04:58:03.761Z,99664.94
2022-08-02T05:00:36.530Z,99673.16
2022-08-02T05:03:07.505Z,99672.84
2022-08-02T05:05:35.685Z,99678.88
2022-08-02T05:08:06.912Z,99674.94
2022-08-02T05:10:36.082Z,99684.44
2022-08-02T05:13:06.293Z,99691.75
2022-08-02T05:15:34.473Z,99688.91
2022-08-02T05:18:04.094Z,99694.84
2022-08-02T05:20:32.440Z,99692.34
2022-08-02T05:23:00.562Z,99689.09
2022-08-02T05:25:28.856Z,99697.38
2022-08-02T05:27:57.143Z,99698.03
2022-08-02T05:30:25.405Z,99704.91
2022-08-02T05:32:55.041Z,99702.25
2022-08-02T05:35:25.915Z,99704.69
2022-08-02T05:37:54.249Z,99714.47
2022-08-02T05:40:25.865Z,99714.81
2022-08-02T05:42:54.540Z,99701.97
2022-08-02T05:45:23.006Z,99708.13
2022-08-02T05:47:51.402Z,99707.31
2022-08-02T05:50:20.042Z,99709.59
2022-08-02T05:52:53.047Z,99713.38
2022-08-02T05:55:26.395Z,99718.16
2022-08-02T05:57:59.619Z,99716.88
2022-08-02T06:00:32.215Z,99723.13
2022-08-02T06:03:05.702Z,99720.44
2022-08-02T06:05:36.636Z,99722.47
2022-08-02T06:08:09.990Z,99721.19
2022-08-02T06:10:39.273Z,99719.38
2022-08-02T06:13:14.416Z,99723.06
2022-08-02T06:15:53.622Z,99732.03
2022-08-02T06:18:28.336Z,99732.31
2022-08-02T06:22:40.238Z,99737.94
2022-08-02T06:23:57.581Z,99737.00
2022-08-02T06:26:28.126Z,99741.06
2022-08-02T06:28:58.461Z,99742.72
2022-08-02T06:31:27.180Z,99744.16
2022-08-02T06:33:55.685Z,99744.50
2022-08-02T06:36:30.925Z,99748.75
2022-08-02T06:39:05.094Z,99743.00
2022-08-02T06:41:41.067Z,99747.47
2022-08-02T06:44:45.530Z,99751.13
2022-08-02T06:47:11.180Z,99751.34
2022-08-02T06:49:52.599Z,99757.91
2022-08-02T06:52:27.763Z,99759.34
2022-08-02T06:54:59.434Z,99761.56
2022-08-02T06:57:28.484Z,99763.66
2022-08-02T06:59:57.042Z,99764.75
2022-08-02T07:02:25.623Z,99765.91
2022-08-02T07:04:56.300Z,99765.78
2022-08-02T07:07:24.627Z,99769.25
2022-08-02T07:09:56.512Z,99768.69
2022-08-02T07:12:32.541Z,99765.78
2022-08-02T07:15:01.314Z,99770.50
2022-08-02T07:17:29.863Z,99774.03
2022-08-02T07:19:59.922Z,99778.81
2022-08-02T07:22:29.400Z,99779.75
2022-08-02T07:24:59.055Z,99780.66
2022-08-02T07:27:27.332Z,99776.78
2022-08-02T07:29:57.104Z,99780.09
2022-08-02T07:32:28.791Z,99786.25
2022-08-02T07:34:57.949Z,99787.50
2022-08-02T07:37:53.114Z,99790.88
2022-08-02T07:40:19.885Z,99792.69
2022-08-02T07:42:49.853Z,99793.28
2022-08-02T07:45:19.428Z,99792.25
2022-08-02T07:47:50.317Z,99799.03
2022-08-02T07:50:19.860Z,99799.13
2022-08-02T07:52:48.811Z,99800.31
2022-08-02T07:55:20.525Z,99780.19
2022-08-02T07:57:50.386Z,99792.81
2022-08-02T08:00:20.608Z,99795.22
2022-08-02T08:02:48.987Z,99789.44
2022-08-02T08:05:18.796Z,99789.69
2022-08-02T08:07:49.418Z,99790.16
2022-08-02T08:10:17.710Z,99794.19
2022-08-02T08:12:46.087Z,99780.59
2022-08-02T08:15:14.404Z,99792.28
2022-08-02T08:17:44.369Z,99789.03
2022-08-02T08:20:15.910Z,99793.03
2022-08-02T08:22:44.441Z,99791.16
2022-08-02T08:25:12.846Z,99794.16
2022-08-02T08:27:50.027Z,99802.72
2022-08-02T08:30:18.460Z,99804.69
2022-08-02T08:32:48.357Z,99802.06
2022-08-02T08:35:18.070Z,99803.56
2022-08-02T08:37:46.682Z,99800.16
2022-08-02T08:42:48.481Z,99799.00
2022-08-02T08:45:18.196Z,99800.41
2022-08-02T08:47:53.355Z,99799.72
2022-08-02T08:50:25.985Z,99799.53
2022-08-02T08:52:58.452Z,99804.47
2022-08-02T08:55:28.537Z,99811.94
2022-08-02T08:57:57.523Z,99808.41
2022-08-02T09:00:25.938Z,99806.69
2022-08-02T09:02:55.644Z,99805.69
2022-08-02T09:05:24.121Z,99801.53
2022-08-02T09:07:53.993Z,99805.38
2022-08-02T09:10:42.472Z,99804.94
2022-08-02T09:13:31.271Z,99802.97
2022-08-02T09:16:12.090Z,99800.22
2022-08-02T09:18:45.711Z,99793.88
2022-08-02T09:21:16.249Z,99797.75
2022-08-02T09:23:46.859Z,99798.47
2022-08-02T09:26:16.561Z,99783.13
2022-08-02T09:28:46.584Z,99793.44
2022-08-02T09:31:18.186Z,99789.41
2022-08-02T09:33:52.472Z,99777.72
2022-08-02T09:36:21.283Z,99776.59
2022-08-02T09:39:01.635Z,99792.13
2022-08-02T09:41:31.502Z,99776.16
2022-08-02T09:44:05.087Z,99791.38
2022-08-02T09:46:38.299Z,99783.31
2022-08-02T09:49:10.374Z,99774.75
2022-08-02T09:51:50.912Z,99773.78
2022-08-02T09:54:21.134Z,99776.19
2022-08-02T09:56:53.774Z,99775.38
2022-08-02T09:59:24.907Z,99764.25
2022-08-02T10:02:17.097Z,99772.09
2022-08-02T10:04:52.599Z,99766.38
2022-08-02T10:07:23.583Z,99758.09
2022-08-02T10:09:52.392Z,99765.66
2022-08-02T10:12:22.373Z,99749.44
2022-08-02T10:14:54.531Z,99743.06
2022-08-02T10:17:23.155Z,99744.94
2022-08-02T10:20:02.232Z,99758.00
2022-08-02T10:22:31.990Z,99749.31
2022-08-02T10:25:00.275Z,99748.34
2022-08-02T10:27:43.161Z,99738.78
2022-08-02T10:30:19.779Z,99742.00
2022-08-02T10:32:48.985Z,99745.34
2022-08-02T10:35:25.587Z,99748.22
2022-08-02T10:37:55.718Z,99741.88
2022-08-02T10:40:27.535Z,99741.66
2022-08-02T10:43:01.026Z,99744.44
2022-08-02T10:45:29.885Z,99738.66
2022-08-02T10:48:03.791Z,99733.72
2022-08-02T10:50:55.764Z,99728.72
2022-08-02T10:53:33.873Z,99738.22
2022-08-02T10:56:03.871Z,99737.25
2022-08-02T10:58:33.852Z,99738.97
2022-08-02T11:01:12.640Z,99725.94
2022-08-02T11:03:42.232Z,99714.22
2022-08-02T11:06:25.985Z,99731.25
2022-08-02T11:09:32.960Z,99722.06
2022-08-02T11:12:03.691Z,99726.66
2022-08-02T11:14:34.786Z,99712.09
2022-08-02T11:17:14.035Z,99712.94
2022-08-02T11:20:18.066Z,99713.94
2022-08-02T11:22:52.907Z,99708.06
2022-08-02T11:26:02.859Z,99700.22
2022-08-02T11:28:25.837Z,99705.66
2022-08-02T11:30:59.038Z,99699.75
2022-08-02T11:33:36.688Z,99709.88
2022-08-02T11:36:07.604Z,99701.97
2022-08-02T11:38:42.225Z,99695.84
2022-08-02T11:41:13.705Z,99691.22
2022-08-02T11:44:02.096Z,99679.00
2022-08-02T11:46:30.530Z,99686.25
2022-08-02T11:49:12.802Z,99681.84
2022-08-02T11:51:59.687Z,99689.53
2022-08-02T11:54:30.835Z,99684.72
2022-08-02T11:57:19.878Z,99695.97
2022-08-02T11:59:50.786Z,99676.41
2022-08-02T12:02:19.675Z,99679.00
2022-08-02T12:04:58.052Z,99676.88
2022-08-02T12:07:35.406Z,99690.09
2022-08-02T12:10:40.745Z,99678.53
2022-08-02T12:13:09.394Z,99672.91
2022-08-02T12:16:15.237Z,99679.44
2022-08-02T12:19:07.334Z,99680.81
2022-08-02T12:21:35.774Z,99677.06
2022-08-02T12:24:07.006Z,99684.81
2022-08-02T12:26:45.255Z,99680.25
2022-08-02T12:29:56.420Z,99681.44
2022-08-02T12:32:32.040Z,99676.06
2022-08-02T12:35:06.466Z,99671.19
2022-08-02T12:37:35.125Z,99668.31
2022-08-02T12:40:25.454Z,99666.75
2022-08-02T12:43:05.400Z,99654.56
2022-08-02T12:45:49.237Z,99654.88
2022-08-02T12:48:37.415Z,99660.38
2022-08-02T12:51:55.772Z,99652.09
2022-08-02T12:54:26.869Z,99651.56
2022-08-02T12:57:05.614Z,99658.69
2022-08-02T12:59:40.255Z,99650.44
2022-08-02T13:02:11.658Z,99651.28
2022-08-02T13:04:50.056Z,99661.44
2022-08-02T13:07:19.795Z,99662.78
2022-08-02T13:10:00.308Z,99660.38
2022-08-02T13:12:37.828Z,99652.03
2022-08-02T13:15:49.724Z,99653.00
2022-08-02T13:18:06.681Z,99647.94
2022-08-02T13:20:35.054Z,99656.22
2022-08-02T13:23:04.387Z,99648.22
2022-08-02T13:25:35.698Z,99635.75
2022-08-02T13:28:09.213Z,99641.31
2022-08-02T13:30:39.038Z,99640.50
2022-08-02T13:33:07.523Z,99629.38
2022-08-02T13:35:38.341Z,99635.34
2022-08-02T13:38:11.743Z,99636.19
2022-08-02T13:41:03.886Z,99624.41
2022-08-02T13:43:54.065Z,99632.53
2022-08-02T13:46:28.749Z,99635.75
2022-08-02T13:48:59.547Z,99628.47
2022-08-02T13:51:27.986Z,99614.16
2022-08-02T13:53:56.102Z,99624.59
2022-08-02T13:56:35.213Z,99619.16
2022-08-02T13:59:53.907Z,99615.06
2022-08-02T14:01:57.287Z,99614.81
2022-08-02T14:04:26.408Z,99612.19
2022-08-02T14:06:58.888Z,99610.63
2022-08-02T14:09:27.635Z,99609.72
2022-08-02T14:11:57.223Z,99625.50
2022-08-02T14:14:25.546Z,99605.72
2022-08-02T14:16:56.534Z,99609.19
2022-08-02T14:19:24.816Z,99608.69
2022-08-02T14:21:53.041Z,99614.16
2022-08-02T14:24:39.742Z,99609.25
2022-08-02T14:27:08.241Z,99601.31
2022-08-02T14:29:36.676Z,99602.72
2022-08-02T14:32:07.059Z,99597.72
2022-08-02T14:34:35.721Z,99599.72
2022-08-02T14:37:06.906Z,99605.47
2022-08-02T14:39:42.936Z,99603.41
2022-08-02T14:42:23.763Z,99597.34
2022-08-02T14:44:55.042Z,99586.22
2022-08-02T14:47:24.760Z,99575.78
2022-08-02T14:49:52.900Z,99580.28
2022-08-02T14:52:21.132Z,99585.56
2022-08-02T14:54:49.672Z,99576.38
2022-08-02T14:57:19.039Z,99578.44
2022-08-02T14:59:47.599Z,99573.38
2022-08-02T15:02:16.289Z,99582.00
2022-08-02T15:04:46.139Z,99573.91
2022-08-02T15:07:15.104Z,99577.38
2022-08-02T15:09:43.229Z,99579.31
2022-08-02T15:12:12.821Z,99574.75
2022-08-02T15:14:41.319Z,99575.16
2022-08-02T15:17:10.236Z,99581.53
2022-08-02T15:19:58.913Z,99578.06
2022-08-02T15:22:30.031Z,99571.03
2022-08-02T15:24:59.459Z,99565.22
2022-08-02T15:27:27.821Z,99563.56
2022-08-02T15:30:00.195Z,99573.22
2022-08-02T15:32:28.674Z,99570.19
2022-08-02T15:34:59.878Z,99566.72
2022-08-02T15:37:32.526Z,99560.94
2022-08-02T15:40:01.004Z,99564.06
2022-08-02T15:42:30.323Z,99561.84
2022-08-02T15:45:00.327Z,99563.25
2022-08-02T15:47:28.730Z,99570.53
2022-08-02T15:49:58.697Z,99566.88
2022-08-02T15:52:27.255Z,99566.72
2022-08-02T15:55:07.422Z,99566.28
2022-08-02T15:57:36.510Z,99571.06
2022-08-02T16:00:06.051Z,99576.88
2022-08-02T16:02:34.331Z,99575.28
2022-08-02T16:05:02.794Z,99568.00
2022-08-02T16:07:42.312Z,99583.63
2022-08-02T16:10:12.398Z,99578.81
2022-08-02T16:12:41.131Z,99572.94
2022-08-02T16:15:10.732Z,99569.94
2022-08-02T16:17:49.041Z,99575.91
2022-08-02T16:20:24.361Z,99590.00
2022-08-02T16:22:52.870Z,99574.72
2022-08-02T16:25:22.530Z,99564.84
2022-08-02T16:27:59.516Z,99576.53
2022-08-02T16:30:37.810Z,99578.28
2022-08-02T16:33:06.296Z,99576.34
2022-08-02T16:35:34.981Z,99574.53
2022-08-02T16:38:03.171Z,99572.25
2022-08-02T16:40:34.648Z,99574.94
2022-08-02T16:43:03.404Z,99576.78
2022-08-02T16:45:37.722Z,99576.47
2022-08-02T16:50:56.227Z,99588.47
2022-08-02T16:53:36.298Z,99573.25
2022-08-02T16:56:07.421Z,99586.56
2022-08-02T16:58:36.169Z,99587.19
2022-08-02T17:01:05.801Z,99578.94
2022-08-02T17:03:56.867Z,99583.97
2022-08-02T17:06:22.417Z,99590.78
2022-08-02T17:08:56.406Z,99588.22
2022-08-02T17:11:26.146Z,99588.03
2022-08-02T17:13:54.449Z,99590.50
2022-08-02T17:16:25.718Z,99589.53
2022-08-02T17:18:56.702Z,99585.28
2022-08-02T17:21:25.122Z,99594.41
2022-08-02T17:24:07.573Z,99601.72
2022-08-02T17:26:39.004Z,99606.97
2022-08-02T17:29:14.426Z,99604.53
2022-08-02T17:32:05.654Z,99594.50
2022-08-02T17:34:35.813Z,99598.88
2022-08-02T17:37:05.604Z,99595.78
2022-08-02T17:39:44.066Z,99596.69
2022-08-02T17:42:23.452Z,99590.59
2022-08-02T17:44:53.718Z,99599.13
2022-08-02T17:47:22.325Z,99599.06
2022-08-02T17:52:51.432Z,99589.50
2022-08-02T17:55:21.617Z,99602.28
2022-08-02T17:57:57.021Z,99609.50
2022-08-02T18:00:33.927Z,99596.00
2022-08-02T18:03:05.668Z,99601.78
2022-08-02T18:08:23.936Z,99611.25
2022-08-02T18:10:52.842Z,99620.91
2022-08-02T18:13:22.917Z,99615.22
2022-08-02T18:18:41.885Z,99617.91
2022-08-02T18:21:22.255Z,99628.31
2022-08-02T18:23:58.813Z,99628.72
2022-08-02T18:26:29.247Z,99627.09
2022-08-02T18:29:00.032Z,99627.94
2022-08-02T18:31:28.496Z,99631.66
2022-08-02T18:34:07.781Z,99633.38
2022-08-02T18:36:36.176Z,99636.97
2022-08-02T18:39:15.683Z,99630.78
2022-08-02T18:41:47.861Z,99639.47
2022-08-02T18:44:18.755Z,99636.16
2022-08-02T18:46:49.399Z,99641.78
2022-08-02T18:49:17.988Z,99645.88
2022-08-02T18:51:49.271Z,99654.19
2022-08-02T18:54:30.746Z,99643.69
2022-08-02T18:57:04.257Z,99643.13
2022-08-02T18:59:54.715Z,99657.84
2022-08-02T19:02:24.943Z,99658.22
2022-08-02T19:04:56.376Z,99663.31
2022-08-02T19:07:25.486Z,99662.09
2022-08-02T19:10:14.000Z,99645.56
2022-08-02T19:12:42.485Z,99658.41
2022-08-02T19:15:17.316Z,99669.06
2022-08-02T19:17:55.302Z,99668.56
2022-08-02T19:20:29.098Z,99668.88
2022-08-02T19:22:58.039Z,99674.06
2022-08-02T19:25:28.151Z,99675.41
2022-08-02T19:28:09.819Z,99681.88
2022-08-02T19:30:45.924Z,99677.38
2022-08-02T19:33:54.856Z,99684.72
2022-08-02T19:36:08.098Z,99676.59
2022-08-02T19:38:40.674Z,99690.50
2022-08-02T19:41:17.317Z,99687.06
2022-08-02T19:44:23.899Z,99682.91
2022-08-02T19:46:42.461Z,99689.91
2022-08-02T19:49:39.211Z,99684.00
2022-08-02T19:52:20.520Z,99681.91
2022-08-02T19:54:55.740Z,99680.50
2022-08-02T19:57:26.226Z,99687.50
2022-08-02T19:59:57.305Z,99680.44
2022-08-02T20:02:28.405Z,99683.34
2022-08-02T20:04:57.731Z,99684.31
2022-08-02T20:07:55.246Z,99683.97
2022-08-02T20:10:24.617Z,99672.38
2022-08-02T20:12:54.993Z,99687.63
2022-08-02T20:15:23.970Z,99686.72
2022-08-02T20:18:26.829Z,99679.38
2022-08-02T20:20:57.747Z,99682.41
2022-08-02T20:23:33.536Z,99686.38
2022-08-02T20:26:10.616Z,99687.88
2022-08-02T20:28:41.587Z,99690.72
2022-08-02T20:31:13.138Z,99685.97
2022-08-02T20:33:55.828Z,99679.00
2022-08-02T20:36:25.392Z,99676.56
2022-08-02T20:38:54.363Z,99678.50
2022-08-02T20:41:23.541Z,99679.91
2022-08-02T20:44:16.167Z,99679.78
2022-08-02T20:46:59.258Z,99685.41
2022-08-02T20:49:40.502Z,99690.56
2022-08-02T20:52:23.117Z,99692.44
2022-08-02T20:54:53.786Z,99695.19
2022-08-02T20:57:48.573Z,99686.41
2022-08-02T21:00:11.803Z,99683.38
2022-08-02T21:02:40.466Z,99688.66
2022-08-02T21:05:15.383Z,99685.81
2022-08-02T21:07:47.556Z,99677.16
2022-08-02T21:10:16.591Z,99685.84
2022-08-02T21:12:45.382Z,99690.13
2022-08-02T21:15:13.973Z,99681.19
2022-08-02T21:17:45.842Z,99683.66
2022-08-02T21:20:27.168Z,99689.16
2022-08-02T21:22:55.976Z,99687.97
2022-08-02T21:25:50.779Z,99678.28
2022-08-02T21:28:17.695Z,99682.22
2022-08-02T21:30:46.672Z,99678.19
2022-08-02T21:33:23.520Z,99678.31
2022-08-02T21:35:54.263Z,99678.97
2022-08-02T21:38:36.163Z,99689.41
2022-08-02T21:41:12.097Z,99698.31
2022-08-02T21:43:43.916Z,99694.41
2022-08-02T21:46:14.735Z,99691.81
2022-08-02T21:48:42.953Z,99690.81
2022-08-02T21:51:16.032Z,99685.06
2022-08-02T21:54:16.815Z,99685.31
2022-08-02T21:56:32.642Z,99685.97
2022-08-02T21:59:15.543Z,99682.91
2022-08-02T22:01:52.702Z,99687.22
2022-08-02T22:04:33.032Z,99686.81
2022-08-02T22:07:03.193Z,99693.97
2022-08-02T22:09:43.313Z,99690.47
2022-08-02T22:12:18.359Z,99687.78
2022-08-02T22:14:54.195Z,99695.56
2022-08-02T22:17:50.411Z,99695.59
2022-08-02T22:20:13.617Z,99696.34
2022-08-02T22:22:43.501Z,99703.16
2022-08-02T22:25:26.465Z,99697.59
2022-08-02T22:28:12.006Z,99695.75
2022-08-02T22:34:01.119Z,99701.78
2022-08-02T22:36:30.689Z,99705.00
2022-08-02T22:39:01.005Z,99704.53
2022-08-02T22:42:00.880Z,99698.69
2022-08-02T22:44:20.141Z,99712.88
2022-08-02T22:46:49.876Z,99706.25
2022-08-02T22:49:38.847Z,99701.47
2022-08-02T22:52:07.768Z,99711.19
2022-08-02T22:54:37.415Z,99709.19
2022-08-02T22:57:07.045Z,99710.75
2022-08-02T22:58:43.670Z,99624.25
2022-08-02T22:58:48.693Z,99583.16
2022-08-02T22:58:49.180Z,99601.41
2022-08-02T22:59:00.141Z,99604.00
2022-08-02T22:59:11.854Z,99699.88
2022-08-02T22:59:42.449Z,99712.28
2022-08-02T23:02:11.236Z,99714.13
2022-08-02T23:04:41.632Z,99703.78
2022-08-02T23:07:09.823Z,99703.19
2022-08-02T23:09:39.491Z,99702.03
2022-08-02T23:12:08.122Z,99707.94
2022-08-02T23:14:36.518Z,99704.91
2022-08-02T23:17:22.126Z,99702.31
2022-08-02T23:19:52.885Z,99704.22
2022-08-02T23:22:29.359Z,99704.16
2022-08-02T23:25:02.366Z,99701.84
2022-08-02T23:27:31.694Z,99710.34
2022-08-02T23:30:00.359Z,99708.09
2022-08-02T23:32:29.334Z,99710.81
2022-08-02T23:35:00.681Z,99706.72
2022-08-02T23:37:28.858Z,99708.09
2022-08-02T23:40:38.672Z,99714.97
2022-08-02T23:43:14.448Z,99712.16
2022-08-02T23:45:46.794Z,99708.72
2022-08-02T23:48:15.083Z,99720.25
2022-08-02T23:50:43.304Z,99718.91
2022-08-02T23:53:11.470Z,99716.00
2022-08-02T23:55:41.261Z,99716.16
2022-08-02T23:58:09.630Z,99708.13
